Kampeska, South Dakota
Current Conditions -  °F | °C
As of 9:53 AM on Monday 24 Nov 2014 (Local Time) from KATY Reporting Station
Light Snow Light Snow  
Wind Chill: -8°   Ceiling: 2100
Heat Index: 13°   Visibility: 4mi
Dew Point:   Wind: 29mph
Humidity: 77%   Direction: 320°NW
Pressure: 29.65"   Gusts: 36mph
Location:  44.9156°N, 97.1699°W
Report Text: KATY 241553Z AUTO 32025G31KT 4SM -SN BKN021 OVC030 M11/M14 A2965 RMK AO2 PK WND 33034/1507 SLP068 P0000 T11061139
Loading
Personal Weather Stations






























Interactive Weather Map New forecast layout! Learn more

10-Day Weather Forecast

Advertisements
Track Severe Weather on mobile